Time;durP1;ratioP1;P1;durP2;ratioP2;P2;SDS_P1;SDS_P2;PMS_P1;PMS_P2;Temp;Humidity;BMP_temperature;BMP_pressure;BME280_temperature;BME280_humidity;BME280_pressure;Samples;Min_cycle;Max_cycle;Signal;HPM_P1;HPM_P2
2023/09/24 00:02:11;;;;;;;8.90;2.50;;;;;;;;;;4957919;28;92596;-86
2023/09/24 00:04:38;;;;;;;6.32;2.38;;;;;;;;;;4956329;28;95517;-84
2023/09/24 00:07:05;;;;;;;5.53;1.88;;;;;;;;;;4950526;28;98948;-85
2023/09/24 00:09:32;;;;;;;6.25;2.15;;;;;;;;;;4948741;28;92867;-84
2023/09/24 00:11:59;;;;;;;7.15;2.28;;;;;;;;;;4948875;28;93097;-85
2023/09/24 00:14:30;;;;;;;5.97;2.25;;;;;;;;;;4956781;28;95532;-86
2023/09/24 00:16:57;;;;;;;5.93;2.28;;;;;;;;;;4955990;28;94780;-85
2023/09/24 00:19:27;;;;;;;5.20;2.20;;;;;;;;;;4953978;28;92938;-85
2023/09/24 00:21:53;;;;;;;6.90;2.10;;;;;;;;;;4953003;28;92984;-85
2023/09/24 00:24:20;;;;;;;5.35;2.15;;;;;;;;;;4952238;28;93599;-85
2023/09/24 00:26:47;;;;;;;8.35;2.00;;;;;;;;;;4953538;28;93469;-84
2023/09/24 00:29:13;;;;;;;7.95;2.20;;;;;;;;;;4945889;28;92648;-84
2023/09/24 00:31:40;;;;;;;4.45;1.73;;;;;;;;;;4952362;28;91858;-84
2023/09/24 00:34:07;;;;;;;7.30;1.92;;;;;;;;;;4952669;28;93817;-84
2023/09/24 00:36:33;;;;;;;6.28;2.05;;;;;;;;;;4970406;28;93126;-85
2023/09/24 00:39:00;;;;;;;5.78;1.98;;;;;;;;;;4950095;28;95768;-85
2023/09/24 00:41:27;;;;;;;4.57;2.00;;;;;;;;;;4968092;28;93019;-85
2023/09/24 00:43:57;;;;;;;6.57;2.00;;;;;;;;;;4951867;28;92476;-84
2023/09/24 00:46:25;;;;;;;4.50;1.70;;;;;;;;;;4952041;28;93064;-84
2023/09/24 00:48:53;;;;;;;5.20;2.00;;;;;;;;;;4942147;28;93008;-84
2023/09/24 00:51:22;;;;;;;5.35;2.20;;;;;;;;;;4931081;28;93123;-84
2023/09/24 00:53:50;;;;;;;5.70;2.10;;;;;;;;;;4931324;28;93062;-84
2023/09/24 00:56:17;;;;;;;4.60;1.75;;;;;;;;;;4933089;28;92058;-84
2023/09/24 00:58:46;;;;;;;8.05;2.13;;;;;;;;;;4939051;28;92420;-84
2023/09/24 01:01:13;;;;;;;5.07;1.70;;;;;;;;;;4951591;28;92500;-84
2023/09/24 01:03:46;;;;;;;6.15;1.88;;;;;;;;;;4948194;28;94969;-84
2023/09/24 01:06:14;;;;;;;4.22;1.80;;;;;;;;;;4956525;28;93184;-84
2023/09/24 01:08:42;;;;;;;5.63;1.90;;;;;;;;;;4955318;28;92849;-84
2023/09/24 01:11:09;;;;;;;4.45;2.05;;;;;;;;;;4961389;28;95349;-84
2023/09/24 01:13:38;;;;;;;4.90;1.95;;;;;;;;;;4953096;28;92997;-84
2023/09/24 01:16:08;;;;;;;4.50;1.70;;;;;;;;;;4951892;28;92868;-85
2023/09/24 01:18:37;;;;;;;6.38;1.98;;;;;;;;;;4954878;28;92980;-85
2023/09/24 01:21:09;;;;;;;7.75;1.80;;;;;;;;;;4950082;28;92374;-85
2023/09/24 01:23:36;;;;;;;5.07;1.83;;;;;;;;;;4951903;28;92577;-85
2023/09/24 01:26:03;;;;;;;;;;;;;;;;;;4966679;28;93089;-85
2023/09/24 01:28:30;;;;;;;5.20;2.10;;;;;;;;;;4945716;28;97830;-85
2023/09/24 01:30:57;;;;;;;4.88;2.05;;;;;;;;;;4955076;28;95160;-85
2023/09/24 01:33:24;;;;;;;4.22;2.00;;;;;;;;;;4953685;28;93123;-84
2023/09/24 01:35:51;;;;;;;3.75;2.00;;;;;;;;;;4940917;28;92447;-85
2023/09/24 01:38:18;;;;;;;6.03;2.20;;;;;;;;;;4953606;28;94997;-85
2023/09/24 01:40:45;;;;;;;6.03;2.08;;;;;;;;;;4963279;28;94258;-85
2023/09/24 01:43:14;;;;;;;6.10;2.20;;;;;;;;;;4957150;28;92982;-85
2023/09/24 01:45:40;;;;;;;5.15;1.98;;;;;;;;;;4955481;28;95142;-84
2023/09/24 01:48:07;;;;;;;4.85;2.00;;;;;;;;;;4955679;28;92934;-84
2023/09/24 01:50:36;;;;;;;5.05;2.15;;;;;;;;;;4961329;28;93556;-86
2023/09/24 01:53:04;;;;;;;6.07;2.08;;;;;;;;;;4959993;28;98152;-86
2023/09/24 01:55:31;;;;;;;;;;;;;;;;;;4942179;28;92891;-85
2023/09/24 01:58:01;;;;;;;6.55;2.35;;;;;;;;;;4935727;28;93060;-86
2023/09/24 02:00:27;;;;;;;8.13;2.30;;;;;;;;;;4940980;28;93686;-86
2023/09/24 02:03:00;;;;;;;7.32;2.28;;;;;;;;;;4945615;28;92577;-86
2023/09/24 02:05:32;;;;;;;7.80;2.25;;;;;;;;;;4934464;28;95915;-86
2023/09/24 02:08:05;;;;;;;6.28;2.20;;;;;;;;;;4948783;28;92665;-86
2023/09/24 02:10:33;;;;;;;7.80;2.40;;;;;;;;;;4932090;28;95618;-86
2023/09/24 02:13:00;;;;;;;7.35;2.55;;;;;;;;;;4929942;28;94568;-86
2023/09/24 02:15:28;;;;;;;7.15;2.70;;;;;;;;;;4942074;28;92834;-85
2023/09/24 02:17:54;;;;;;;;;;;;;;;;;;4929866;28;99375;-84
2023/09/24 02:20:25;;;;;;;7.05;2.00;;;;;;;;;;4962124;28;95743;-85
2023/09/24 02:22:56;;;;;;;5.88;2.17;;;;;;;;;;4924710;28;92736;-84
2023/09/24 02:25:23;;;;;;;5.93;2.20;;;;;;;;;;4937269;28;92759;-86
2023/09/24 02:27:50;;;;;;;6.05;2.30;;;;;;;;;;4926124;28;92888;-87
2023/09/24 02:30:21;;;;;;;7.43;2.50;;;;;;;;;;4931796;28;95158;-88
2023/09/24 02:32:48;;;;;;;6.20;2.33;;;;;;;;;;4932819;28;93608;-88
2023/09/24 02:35:16;;;;;;;6.60;2.53;;;;;;;;;;4928640;28;91914;-88
2023/09/24 02:37:45;;;;;;;5.85;2.47;;;;;;;;;;4928376;28;94698;-88
2023/09/24 02:40:15;;;;;;;5.68;2.30;;;;;;;;;;4933858;28;93558;-88
2023/09/24 02:42:43;;;;;;;6.68;2.30;;;;;;;;;;4927332;28;95308;-83
2023/09/24 02:45:10;;;;;;;12.90;2.60;;;;;;;;;;4933276;28;95224;-85
2023/09/24 02:47:37;;;;;;;;;;;;;;;;;;4936125;28;93066;-85
2023/09/24 02:50:12;;;;;;;7.28;2.45;;;;;;;;;;4931250;28;117924;-85
2023/09/24 02:52:48;;;;;;;8.23;2.80;;;;;;;;;;4930496;28;94622;-84
2023/09/24 02:55:15;;;;;;;7.55;2.67;;;;;;;;;;4930543;28;92538;-85
2023/09/24 02:57:44;;;;;;;6.72;2.97;;;;;;;;;;4930677;28;93004;-85
2023/09/24 03:00:13;;;;;;;7.10;2.30;;;;;;;;;;4931186;28;93253;-85
2023/09/24 03:02:39;;;;;;;8.57;3.10;;;;;;;;;;4925426;28;92898;-85
2023/09/24 03:05:08;;;;;;;8.05;2.65;;;;;;;;;;4927308;28;93783;-85
2023/09/24 03:07:36;;;;;;;6.43;2.47;;;;;;;;;;4921248;28;98385;-84
2023/09/24 03:10:06;;;;;;;5.93;2.60;;;;;;;;;;4928164;28;92700;-85
2023/09/24 03:12:34;;;;;;;6.60;2.70;;;;;;;;;;4927818;28;93458;-85
2023/09/24 03:15:01;;;;;;;5.90;2.60;;;;;;;;;;4926977;28;92474;-83
2023/09/24 03:17:28;;;;;;;7.15;3.03;;;;;;;;;;4943014;28;94327;-84
2023/09/24 03:19:55;;;;;;;6.28;2.58;;;;;;;;;;4949967;28;93056;-84
2023/09/24 03:22:21;;;;;;;7.13;2.50;;;;;;;;;;4930292;28;92463;-84
2023/09/24 03:24:48;;;;;;;6.70;2.50;;;;;;;;;;4929202;28;94307;-84
2023/09/24 03:27:15;;;;;;;8.20;2.67;;;;;;;;;;4931100;28;93442;-85
2023/09/24 03:29:43;;;;;;;7.10;2.70;;;;;;;;;;4932893;28;92674;-85
2023/09/24 03:32:09;;;;;;;6.22;2.30;;;;;;;;;;4928662;28;95035;-85
2023/09/24 03:34:36;;;;;;;5.93;2.40;;;;;;;;;;4928797;28;92551;-85
2023/09/24 03:37:03;;;;;;;6.65;2.60;;;;;;;;;;4940698;28;92833;-84
2023/09/24 03:39:29;;;;;;;5.97;2.45;;;;;;;;;;4947552;28;96343;-84
2023/09/24 03:41:56;;;;;;;6.20;2.75;;;;;;;;;;4964251;28;92944;-84
2023/09/24 03:44:23;;;;;;;7.82;2.83;;;;;;;;;;4960980;28;95391;-84
2023/09/24 03:46:49;;;;;;;6.18;2.17;;;;;;;;;;4944511;28;95910;-84
2023/09/24 03:49:16;;;;;;;6.85;2.78;;;;;;;;;;4931168;28;91930;-84
2023/09/24 03:51:43;;;;;;;8.05;2.75;;;;;;;;;;4928011;28;94896;-84
2023/09/24 03:54:09;;;;;;;6.15;2.58;;;;;;;;;;4923047;28;92608;-84
2023/09/24 03:56:36;;;;;;;7.72;2.78;;;;;;;;;;4939258;28;94774;-83
2023/09/24 03:59:03;;;;;;;6.30;2.28;;;;;;;;;;4952096;28;92415;-83
2023/09/24 04:01:31;;;;;;;5.95;2.45;;;;;;;;;;4966137;28;93070;-82
2023/09/24 04:04:00;;;;;;;6.07;2.38;;;;;;;;;;4948257;28;94075;-84
2023/09/24 04:06:26;;;;;;;7.13;2.70;;;;;;;;;;4947181;28;93485;-83
2023/09/24 04:08:54;;;;;;;7.78;2.58;;;;;;;;;;4948927;28;92917;-83
2023/09/24 04:11:21;;;;;;;6.50;2.38;;;;;;;;;;4943768;28;94088;-82
2023/09/24 04:13:48;;;;;;;5.63;2.20;;;;;;;;;;4946557;28;92311;-82
2023/09/24 04:16:14;;;;;;;11.80;2.60;;;;;;;;;;4963276;28;94783;-82
2023/09/24 04:18:41;;;;;;;5.30;2.15;;;;;;;;;;4948906;28;92475;-82
2023/09/24 04:21:15;;;;;;;5.55;2.40;;;;;;;;;;4942007;28;95086;-82
2023/09/24 04:23:42;;;;;;;7.50;2.50;;;;;;;;;;4944862;28;95744;-84
2023/09/24 04:26:22;;;;;;;6.70;2.60;;;;;;;;;;4952623;28;93561;-86
2023/09/24 04:28:57;;;;;;;6.10;2.20;;;;;;;;;;4961490;28;92871;-84
2023/09/24 04:31:24;;;;;;;6.35;2.42;;;;;;;;;;4957523;28;94318;-84
2023/09/24 04:33:51;;;;;;;6.00;2.30;;;;;;;;;;4951573;28;94942;-84
2023/09/24 04:36:19;;;;;;;9.07;2.53;;;;;;;;;;4949256;28;92807;-84
2023/09/24 04:38:47;;;;;;;8.00;2.40;;;;;;;;;;4942295;28;92655;-84
2023/09/24 04:41:15;;;;;;;7.00;2.30;;;;;;;;;;4953237;28;92461;-84
2023/09/24 04:43:42;;;;;;;6.72;2.28;;;;;;;;;;4947643;28;95297;-85
2023/09/24 04:46:09;;;;;;;6.88;2.75;;;;;;;;;;4945759;28;95593;-85
2023/09/24 04:48:36;;;;;;;7.10;2.50;;;;;;;;;;4948986;28;92493;-86
2023/09/24 04:51:02;;;;;;;7.35;2.30;;;;;;;;;;4949047;28;92808;-84
2023/09/24 04:53:30;;;;;;;9.50;2.30;;;;;;;;;;4948289;28;93405;-85
2023/09/24 04:56:05;;;;;;;6.63;2.20;;;;;;;;;;4947924;28;92990;-84
2023/09/24 04:58:32;;;;;;;5.82;2.88;;;;;;;;;;4952384;28;93294;-84
2023/09/24 05:01:02;;;;;;;6.20;2.30;;;;;;;;;;4953097;28;92427;-85
2023/09/24 05:03:29;;;;;;;7.10;2.55;;;;;;;;;;4935518;28;95858;-84
2023/09/24 05:05:56;;;;;;;6.68;2.70;;;;;;;;;;4963482;28;94249;-84
2023/09/24 05:08:23;;;;;;;6.70;2.40;;;;;;;;;;4951479;28;92856;-84
2023/09/24 05:10:49;;;;;;;7.63;2.90;;;;;;;;;;4950375;28;94869;-84
2023/09/24 05:13:16;;;;;;;6.68;2.50;;;;;;;;;;4966721;28;94125;-86
2023/09/24 05:15:50;;;;;;;6.13;2.50;;;;;;;;;;4948101;28;92823;-85
2023/09/24 05:18:17;;;;;;;7.00;2.70;;;;;;;;;;4943699;28;94010;-86
2023/09/24 05:20:44;;;;;;;6.15;2.50;;;;;;;;;;4954686;28;92975;-84
2023/09/24 05:23:11;;;;;;;7.55;2.60;;;;;;;;;;4951646;28;92552;-83
2023/09/24 05:25:37;;;;;;;6.90;2.55;;;;;;;;;;4958725;28;93426;-83
2023/09/24 05:28:04;;;;;;;6.75;2.90;;;;;;;;;;4971500;28;91823;-84
2023/09/24 05:30:30;;;;;;;8.13;2.67;;;;;;;;;;4947420;28;95186;-84
2023/09/24 05:32:57;;;;;;;6.57;2.33;;;;;;;;;;4951593;28;93390;-84
2023/09/24 05:35:24;;;;;;;6.63;2.70;;;;;;;;;;4925060;28;94908;-84
2023/09/24 05:37:50;;;;;;;6.18;2.40;;;;;;;;;;4947231;28;96213;-84
2023/09/24 05:40:17;;;;;;;7.00;2.50;;;;;;;;;;4942719;28;92967;-84
2023/09/24 05:42:43;;;;;;;6.82;2.58;;;;;;;;;;4949972;28;93020;-83
2023/09/24 05:45:12;;;;;;;6.72;2.65;;;;;;;;;;4951391;28;93230;-84
2023/09/24 05:47:39;;;;;;;6.32;2.50;;;;;;;;;;4949209;28;92470;-83
2023/09/24 05:50:09;;;;;;;6.10;2.25;;;;;;;;;;4945340;28;96344;-83
2023/09/24 05:52:35;;;;;;;10.10;2.42;;;;;;;;;;4931664;28;92648;-83
2023/09/24 05:55:02;;;;;;;6.13;2.50;;;;;;;;;;4926065;28;93130;-82
2023/09/24 05:57:29;;;;;;;7.03;2.33;;;;;;;;;;4921503;28;92584;-83
2023/09/24 05:59:56;;;;;;;6.97;2.55;;;;;;;;;;4929516;28;95690;-82
2023/09/24 06:02:24;;;;;;;;;;;;;;;;;;4934878;28;92447;-83
2023/09/24 06:04:52;;;;;;;5.70;2.00;;;;;;;;;;4932211;28;93127;-82
2023/09/24 06:07:21;;;;;;;7.30;2.45;;;;;;;;;;4921447;28;92540;-81
2023/09/24 06:09:48;;;;;;;4.65;2.40;;;;;;;;;;4927604;28;93094;-82
2023/09/24 06:12:14;;;;;;;7.15;2.40;;;;;;;;;;4945398;28;93227;-82
2023/09/24 06:14:41;;;;;;;5.88;2.08;;;;;;;;;;4926589;28;92580;-82
2023/09/24 06:17:07;;;;;;;5.43;2.22;;;;;;;;;;4927357;28;93650;-83
2023/09/24 06:19:34;;;;;;;5.97;2.20;;;;;;;;;;4930965;28;93279;-83
2023/09/24 06:22:00;;;;;;;6.00;2.45;;;;;;;;;;4930660;28;92590;-83
2023/09/24 06:24:29;;;;;;;7.45;2.55;;;;;;;;;;4932839;28;95521;-83
2023/09/24 06:26:56;;;;;;;6.38;2.30;;;;;;;;;;4920404;28;92758;-84
2023/09/24 06:29:22;;;;;;;6.13;2.42;;;;;;;;;;4930132;28;93503;-85
2023/09/24 06:31:50;;;;;;;7.47;2.40;;;;;;;;;;4933086;28;95148;-84
2023/09/24 06:34:17;;;;;;;7.93;3.00;;;;;;;;;;4919665;28;92459;-84
2023/09/24 06:36:44;;;;;;;6.15;2.53;;;;;;;;;;4957689;28;93299;-84
2023/09/24 06:39:13;;;;;;;6.18;2.20;;;;;;;;;;4952833;28;92839;-83
2023/09/24 06:41:40;;;;;;;6.32;2.40;;;;;;;;;;4953810;28;92122;-82
2023/09/24 06:44:08;;;;;;;5.70;2.50;;;;;;;;;;4951800;28;92427;-83
2023/09/24 06:46:35;;;;;;;6.22;2.20;;;;;;;;;;4953736;28;93592;-82
2023/09/24 06:49:01;;;;;;;9.65;2.58;;;;;;;;;;4949380;28;94878;-84
2023/09/24 06:51:28;;;;;;;6.35;2.53;;;;;;;;;;4949866;28;93823;-84
2023/09/24 06:53:55;;;;;;;6.28;2.28;;;;;;;;;;4949796;28;92680;-84
2023/09/24 06:56:21;;;;;;;6.30;2.40;;;;;;;;;;4950545;28;92777;-84
2023/09/24 06:58:48;;;;;;;7.53;2.50;;;;;;;;;;4952349;28;93560;-83
2023/09/24 07:01:14;;;;;;;7.85;2.22;;;;;;;;;;4953867;28;92946;-84
2023/09/24 07:03:41;;;;;;;4.97;2.22;;;;;;;;;;4950102;28;93459;-83
2023/09/24 07:06:08;;;;;;;5.65;2.33;;;;;;;;;;4948423;28;92540;-84
2023/09/24 07:08:35;;;;;;;5.40;2.35;;;;;;;;;;4951222;28;98201;-84
2023/09/24 07:11:28;;;;;;;5.40;2.10;;;;;;;;;;4949369;28;93103;-84
2023/09/24 07:13:56;;;;;;;5.20;2.00;;;;;;;;;;4918739;28;94961;-84
2023/09/24 07:16:24;;;;;;;7.05;2.22;;;;;;;;;;4943014;28;95465;-83
2023/09/24 07:18:51;;;;;;;7.10;2.25;;;;;;;;;;4946750;28;93507;-83
2023/09/24 07:21:18;;;;;;;13.55;2.50;;;;;;;;;;4950033;28;92562;-82
2023/09/24 07:23:59;;;;;;;9.63;2.40;;;;;;;;;;4948203;28;93039;-81
2023/09/24 07:26:26;;;;;;;6.60;2.28;;;;;;;;;;4949412;28;93037;-83
2023/09/24 07:28:53;;;;;;;7.97;2.67;;;;;;;;;;4967184;28;92591;-84
2023/09/24 07:31:23;;;;;;;7.32;2.47;;;;;;;;;;4960477;28;93445;-82
2023/09/24 07:33:55;;;;;;;6.18;2.30;;;;;;;;;;4945388;28;93886;-82
2023/09/24 07:36:22;;;;;;;9.82;3.33;;;;;;;;;;4946350;28;93322;-80
2023/09/24 07:38:58;;;;;;;7.57;2.53;;;;;;;;;;4953359;28;95547;-84
2023/09/24 07:41:25;;;;;;;8.35;3.45;;;;;;;;;;4960778;28;93457;-83
2023/09/24 07:43:52;;;;;;;10.38;2.92;;;;;;;;;;4949709;28;93259;-82
2023/09/24 07:46:19;;;;;;;9.75;3.10;;;;;;;;;;4951968;28;93119;-83
2023/09/24 07:48:47;;;;;;;9.77;3.10;;;;;;;;;;4969588;28;93059;-81
2023/09/24 07:51:17;;;;;;;9.48;3.00;;;;;;;;;;4945092;28;94969;-82
2023/09/24 07:53:45;;;;;;;10.05;2.90;;;;;;;;;;4943935;28;92680;-81
2023/09/24 07:56:12;;;;;;;7.32;3.00;;;;;;;;;;4935248;28;92983;-81
2023/09/24 07:58:40;;;;;;;7.15;3.13;;;;;;;;;;4941533;28;94939;-81
2023/09/24 08:01:18;;;;;;;7.80;3.00;;;;;;;;;;4951054;28;92963;-83
2023/09/24 08:03:45;;;;;;;8.60;3.28;;;;;;;;;;4951911;28;95928;-81
2023/09/24 08:06:12;;;;;;;;;;;;;;;;;;4941213;28;93077;-81
2023/09/24 08:08:39;;;;;;;8.02;3.20;;;;;;;;;;4937477;28;110448;-81
2023/09/24 08:11:23;;;;;;;8.13;2.78;;;;;;;;;;4947101;28;94285;-81
2023/09/24 08:13:50;;;;;;;8.15;3.03;;;;;;;;;;4940929;28;93593;-80
2023/09/24 08:16:19;;;;;;;7.53;2.50;;;;;;;;;;4940876;28;93534;-81
2023/09/24 08:18:48;;;;;;;6.32;2.33;;;;;;;;;;4942225;28;93277;-81
2023/09/24 08:21:16;;;;;;;7.55;2.75;;;;;;;;;;4934516;28;92546;-82
2023/09/24 08:23:42;;;;;;;8.50;2.63;;;;;;;;;;4928684;28;92893;-81
2023/09/24 08:26:09;;;;;;;6.80;2.60;;;;;;;;;;4927613;28;93651;-82
2023/09/24 08:28:35;;;;;;;8.65;2.90;;;;;;;;;;4898989;28;95054;-85
2023/09/24 08:31:09;;;;;;;6.88;2.92;;;;;;;;;;4929819;28;95431;-85
2023/09/24 08:33:36;;;;;;;9.38;3.13;;;;;;;;;;4930535;28;95353;-85
2023/09/24 08:36:12;;;;;;;7.03;2.65;;;;;;;;;;4935498;28;92656;-83
2023/09/24 08:38:38;;;;;;;6.88;2.50;;;;;;;;;;4933535;28;93338;-84
2023/09/24 08:41:09;;;;;;;8.55;2.65;;;;;;;;;;4928264;28;92404;-82
2023/09/24 08:43:37;;;;;;;7.85;1.95;;;;;;;;;;4933827;28;92796;-84
2023/09/24 08:46:04;;;;;;;7.80;2.03;;;;;;;;;;4933618;28;92375;-83
2023/09/24 08:48:31;;;;;;;5.70;2.20;;;;;;;;;;4950502;28;92621;-83
2023/09/24 08:50:58;;;;;;;6.25;2.35;;;;;;;;;;4936384;28;92357;-83
2023/09/24 08:53:28;;;;;;;6.65;2.15;;;;;;;;;;4931196;28;96464;-84
2023/09/24 08:55:55;;;;;;;8.80;2.25;;;;;;;;;;4931533;28;92459;-82
2023/09/24 08:58:22;;;;;;;6.25;2.05;;;;;;;;;;4934190;28;93456;-83
2023/09/24 09:00:51;;;;;;;5.45;1.80;;;;;;;;;;4928402;28;93545;-81
2023/09/24 09:03:18;;;;;;;6.03;1.77;;;;;;;;;;4942258;28;93149;-82
2023/09/24 09:05:45;;;;;;;;;;;;;;;;;;4940647;28;92885;-81
2023/09/24 09:08:11;;;;;;;5.82;1.75;;;;;;;;;;4937754;28;102994;-81
2023/09/24 09:10:38;;;;;;;6.05;1.60;;;;;;;;;;4936008;28;92769;-79
2023/09/24 09:13:08;;;;;;;7.75;1.85;;;;;;;;;;4951515;28;96278;-83
2023/09/24 09:15:36;;;;;;;9.13;1.80;;;;;;;;;;4948728;28;92816;-83
2023/09/24 09:18:02;;;;;;;7.70;1.90;;;;;;;;;;4946486;28;95164;-83
2023/09/24 09:20:37;;;;;;;13.30;2.47;;;;;;;;;;4962725;28;92983;-83
2023/09/24 09:23:04;;;;;;;11.35;1.83;;;;;;;;;;4956116;28;92950;-80
2023/09/24 09:25:31;;;;;;;7.32;1.75;;;;;;;;;;4957429;28;93103;-83
2023/09/24 09:27:57;;;;;;;7.72;1.85;;;;;;;;;;4959499;28;92420;-83
2023/09/24 09:30:24;;;;;;;8.00;1.80;;;;;;;;;;4957869;28;92628;-84
2023/09/24 09:32:51;;;;;;;11.18;2.38;;;;;;;;;;4946180;28;94442;-84
2023/09/24 09:35:17;;;;;;;9.23;2.00;;;;;;;;;;4971186;28;92108;-83
2023/09/24 09:37:45;;;;;;;8.13;1.80;;;;;;;;;;4951259;28;95144;-86
2023/09/24 09:40:12;;;;;;;5.75;1.70;;;;;;;;;;4949136;28;93215;-86
2023/09/24 09:42:39;;;;;;;6.90;1.92;;;;;;;;;;4939647;28;94818;-86
2023/09/24 09:45:09;;;;;;;6.68;1.90;;;;;;;;;;4951669;28;93050;-86
2023/09/24 09:47:48;;;;;;;6.90;1.90;;;;;;;;;;4949800;28;92717;-85
2023/09/24 09:50:16;;;;;;;9.48;2.20;;;;;;;;;;4955333;28;98314;-84
2023/09/24 09:52:43;;;;;;;6.97;1.73;;;;;;;;;;4970965;28;94653;-86
2023/09/24 09:55:10;;;;;;;6.68;2.10;;;;;;;;;;4952569;28;93025;-85
2023/09/24 09:57:37;;;;;;;4.95;1.60;;;;;;;;;;4966110;28;92757;-84
2023/09/24 10:00:11;;;;;;;7.28;1.50;;;;;;;;;;4938205;28;92695;-84
2023/09/24 10:02:39;;;;;;;5.70;1.70;;;;;;;;;;4952427;28;92540;-87
2023/09/24 10:05:07;;;;;;;3.63;1.40;;;;;;;;;;4950596;28;93051;-85
2023/09/24 10:07:37;;;;;;;4.88;1.50;;;;;;;;;;4948717;28;95683;-84
2023/09/24 10:10:22;;;;;;;5.40;1.60;;;;;;;;;;4944703;28;95251;-84
2023/09/24 10:12:49;;;;;;;5.88;1.80;;;;;;;;;;4932863;28;96228;-86
2023/09/24 10:15:23;;;;;;;5.72;2.00;;;;;;;;;;4931984;28;92937;-84
2023/09/24 10:17:50;;;;;;;;;;;;;;;;;;4931021;28;92849;-85
2023/09/24 10:20:18;;;;;;;6.60;1.70;;;;;;;;;;4942965;28;117886;-85
2023/09/24 10:22:47;;;;;;;5.97;1.50;;;;;;;;;;4954834;28;93524;-87
2023/09/24 10:25:34;;;;;;;6.00;1.60;;;;;;;;;;4951781;28;92913;-86
2023/09/24 10:28:11;;;;;;;6.20;1.55;;;;;;;;;;4951419;28;92932;-84
2023/09/24 10:30:57;;;;;;;7.45;1.60;;;;;;;;;;4940250;28;92887;-85
2023/09/24 10:33:42;;;;;;;5.53;1.58;;;;;;;;;;4949517;28;95772;-84
2023/09/24 10:36:26;;;;;;;4.85;1.42;;;;;;;;;;4950092;28;92465;-84
2023/09/24 10:39:13;;;;;;;4.60;1.40;;;;;;;;;;4941278;28;94486;-82
2023/09/24 10:41:59;;;;;;;6.78;1.80;;;;;;;;;;4946058;28;94142;-84
2023/09/24 10:44:26;;;;;;;5.20;1.40;;;;;;;;;;4951172;28;92541;-84
2023/09/24 10:46:54;;;;;;;4.65;1.30;;;;;;;;;;4952380;28;93162;-82
2023/09/24 10:49:25;;;;;;;5.57;1.60;;;;;;;;;;4953048;28;93231;-82
2023/09/24 10:51:58;;;;;;;5.97;1.48;;;;;;;;;;4926990;28;95217;-85
2023/09/24 10:54:26;;;;;;;4.63;1.33;;;;;;;;;;4946413;28;93191;-85
2023/09/24 10:56:52;;;;;;;6.00;1.42;;;;;;;;;;4942137;28;92495;-83
2023/09/24 10:59:31;;;;;;;3.90;1.40;;;;;;;;;;4931419;28;94969;-81
2023/09/24 11:01:57;;;;;;;5.20;1.52;;;;;;;;;;4948313;28;96256;-84
2023/09/24 11:04:25;;;;;;;5.47;1.48;;;;;;;;;;4951204;28;92492;-84
2023/09/24 11:06:52;;;;;;;4.35;1.38;;;;;;;;;;4946722;28;94873;-85
2023/09/24 11:09:20;;;;;;;5.03;1.42;;;;;;;;;;4947464;28;93414;-85
2023/09/24 11:11:47;;;;;;;5.32;1.42;;;;;;;;;;4936786;28;93089;-83
2023/09/24 11:14:22;;;;;;;6.20;1.30;;;;;;;;;;4951518;28;92978;-83
2023/09/24 11:16:54;;;;;;;4.07;1.10;;;;;;;;;;4952290;28;91982;-85
2023/09/24 11:19:40;;;;;;;4.50;1.30;;;;;;;;;;4950193;28;93743;-86
2023/09/24 11:22:20;;;;;;;7.53;1.63;;;;;;;;;;4946668;28;98121;-84
2023/09/24 11:24:50;;;;;;;4.55;1.27;;;;;;;;;;4932524;28;95357;-84
2023/09/24 11:27:18;;;;;;;4.50;1.30;;;;;;;;;;4935308;28;95131;-84
2023/09/24 11:29:57;;;;;;;7.88;1.40;;;;;;;;;;4937417;28;93053;-83
2023/09/24 11:32:25;;;;;;;;;;;;;;;;;;4948348;28;92689;-84
2023/09/24 11:35:07;;;;;;;5.15;1.42;;;;;;;;;;4944138;28;110512;-85
2023/09/24 11:37:44;;;;;;;3.72;1.20;;;;;;;;;;4940872;28;92703;-85
2023/09/24 11:40:27;;;;;;;5.60;1.40;;;;;;;;;;4940222;28;95860;-85
2023/09/24 11:42:53;;;;;;;5.95;1.60;;;;;;;;;;4936270;28;92512;-85
2023/09/24 11:45:38;;;;;;;5.45;1.42;;;;;;;;;;4939374;28;93967;-84
2023/09/24 11:48:10;;;;;;;7.75;1.70;;;;;;;;;;4957895;28;95816;-87
2023/09/24 11:50:38;;;;;;;6.75;1.55;;;;;;;;;;4936436;28;94796;-89
2023/09/24 11:53:06;;;;;;;7.78;1.60;;;;;;;;;;4938371;28;92553;-89
2023/09/24 11:55:32;;;;;;;4.72;1.20;;;;;;;;;;4961825;28;92695;-89
2023/09/24 11:57:59;;;;;;;5.63;1.35;;;;;;;;;;4946815;28;92682;-90
2023/09/24 12:00:26;;;;;;;3.88;1.20;;;;;;;;;;4952944;28;93369;-91
2023/09/24 12:02:52;;;;;;;4.45;1.10;;;;;;;;;;4951263;28;93096;-90
2023/09/24 12:05:20;;;;;;;4.68;1.20;;;;;;;;;;4949344;28;92587;-89
2023/09/24 12:08:00;;;;;;;4.38;1.10;;;;;;;;;;4953650;28;92915;-90
2023/09/24 12:10:26;;;;;;;;;;;;;;;;;;4958715;28;94123;-89
2023/09/24 12:12:53;;;;;;;2.83;1.10;;;;;;;;;;4959207;28;92786;-89
2023/09/24 12:15:20;;;;;;;3.00;1.10;;;;;;;;;;4956413;28;94864;-89
2023/09/24 12:17:47;;;;;;;3.60;1.20;;;;;;;;;;4958297;28;93685;-89
2023/09/24 12:20:14;;;;;;;2.97;1.33;;;;;;;;;;4955831;28;92852;-89
2023/09/24 12:22:41;;;;;;;4.75;1.20;;;;;;;;;;4957837;28;93363;-90
2023/09/24 12:25:09;;;;;;;3.50;1.10;;;;;;;;;;4957440;28;92949;-88
2023/09/24 12:27:36;;;;;;;3.95;1.00;;;;;;;;;;4957488;28;93246;-88
2023/09/24 12:30:04;;;;;;;3.83;1.23;;;;;;;;;;4962326;28;92790;-88
2023/09/24 12:32:32;;;;;;;4.38;1.40;;;;;;;;;;4962002;28;91893;-88
2023/09/24 12:34:59;;;;;;;3.50;1.10;;;;;;;;;;4954402;28;92926;-86
2023/09/24 12:37:25;;;;;;;3.42;1.15;;;;;;;;;;4960622;28;93132;-85
2023/09/24 12:39:52;;;;;;;6.35;1.50;;;;;;;;;;4971998;28;95156;-87
2023/09/24 12:42:18;;;;;;;3.78;1.20;;;;;;;;;;4959441;28;93607;-87
2023/09/24 12:44:45;;;;;;;5.32;1.10;;;;;;;;;;4956938;28;92539;-88
2023/09/24 12:47:12;;;;;;;5.32;1.13;;;;;;;;;;4941921;28;95649;-89
2023/09/24 12:49:38;;;;;;;4.10;1.30;;;;;;;;;;4954370;28;93148;-86
2023/09/24 12:52:05;;;;;;;3.25;1.20;;;;;;;;;;4934715;28;94075;-89
2023/09/24 12:54:31;;;;;;;4.57;1.13;;;;;;;;;;4937598;28;93047;-87
2023/09/24 12:56:58;;;;;;;4.13;1.10;;;;;;;;;;4935240;28;95192;-88
2023/09/24 12:59:25;;;;;;;3.30;1.05;;;;;;;;;;4936735;28;92987;-87
2023/09/24 13:01:52;;;;;;;5.70;1.75;;;;;;;;;;4939993;28;93785;-87
2023/09/24 13:04:18;;;;;;;4.28;1.15;;;;;;;;;;4933965;28;95330;-86
2023/09/24 13:06:49;;;;;;;3.45;1.08;;;;;;;;;;4933863;28;94264;-88
2023/09/24 13:09:16;;;;;;;4.13;1.17;;;;;;;;;;4936467;28;92416;-89
2023/09/24 13:11:44;;;;;;;3.70;1.23;;;;;;;;;;4937143;28;92625;-89
2023/09/24 13:14:11;;;;;;;2.80;1.10;;;;;;;;;;4951315;28;92636;-88
2023/09/24 13:16:41;;;;;;;3.35;1.30;;;;;;;;;;4931761;28;93263;-87
2023/09/24 13:19:12;;;;;;;3.25;1.17;;;;;;;;;;4936977;28;92390;-88
2023/09/24 13:21:43;;;;;;;3.60;1.10;;;;;;;;;;4932609;28;93943;-88
2023/09/24 13:24:10;;;;;;;3.72;1.10;;;;;;;;;;4937227;28;94641;-86
2023/09/24 13:26:39;;;;;;;4.30;1.20;;;;;;;;;;4934452;28;92907;-87
2023/09/24 13:29:06;;;;;;;2.97;1.10;;;;;;;;;;4924477;28;95094;-87
2023/09/24 13:31:33;;;;;;;2.33;1.00;;;;;;;;;;4935721;28;92632;-88
2023/09/24 13:34:03;;;;;;;4.72;1.30;;;;;;;;;;4915624;28;95593;-87
2023/09/24 13:36:33;;;;;;;3.50;1.10;;;;;;;;;;4932389;28;95720;-87
2023/09/24 13:39:00;;;;;;;3.33;1.05;;;;;;;;;;4933203;28;92619;-88
2023/09/24 13:41:27;;;;;;;2.38;1.05;;;;;;;;;;4950874;28;97054;-88
2023/09/24 13:43:54;;;;;;;;;;;;;;;;;;4953057;28;93422;-88
2023/09/24 13:46:21;;;;;;;2.25;0.88;;;;;;;;;;4962027;28;92021;-87
2023/09/24 13:48:51;;;;;;;4.13;1.25;;;;;;;;;;4967242;28;92471;-91
2023/09/24 13:51:17;;;;;;;2.72;0.98;;;;;;;;;;4983701;28;92207;-88
2023/09/24 13:53:44;;;;;;;;;;;;;;;;;;4956870;28;94765;-89
2023/09/24 13:56:12;;;;;;;2.63;1.05;;;;;;;;;;4964900;28;94650;-89
2023/09/24 13:58:39;;;;;;;2.90;1.00;;;;;;;;;;4967624;28;92887;-88
2023/09/24 14:01:06;;;;;;;3.38;1.00;;;;;;;;;;4961032;28;92842;-89
2023/09/24 14:03:33;;;;;;;2.80;1.00;;;;;;;;;;4959439;28;93105;-89
2023/09/24 14:06:00;;;;;;;3.13;1.00;;;;;;;;;;4981845;28;92446;-88
2023/09/24 14:14:05;;;;;;;1.95;0.95;;;;;;;;;;4934084;28;99366;-88
2023/09/24 14:16:31;;;;;;;2.92;1.00;;;;;;;;;;4933134;28;92535;-88
2023/09/24 14:18:58;;;;;;;3.05;0.95;;;;;;;;;;4930195;28;95778;-88
2023/09/24 14:21:25;;;;;;;2.22;0.95;;;;;;;;;;4946654;28;100541;-88
2023/09/24 14:23:52;;;;;;;3.15;1.00;;;;;;;;;;4956093;28;93159;-87
2023/09/24 14:26:19;;;;;;;2.70;1.00;;;;;;;;;;4968386;28;92842;-88
2023/09/24 14:28:46;;;;;;;3.17;1.20;;;;;;;;;;4949442;28;95765;-87
2023/09/24 14:31:14;;;;;;;3.47;1.08;;;;;;;;;;4944155;28;92390;-88
2023/09/24 14:33:41;;;;;;;2.13;1.00;;;;;;;;;;4949473;28;93049;-87
2023/09/24 14:36:07;;;;;;;2.58;1.00;;;;;;;;;;4951266;28;92423;-88
2023/09/24 14:38:34;;;;;;;2.00;0.90;;;;;;;;;;4951296;28;92534;-88
2023/09/24 14:41:01;;;;;;;3.60;1.10;;;;;;;;;;4952132;28;93112;-87
2023/09/24 14:43:27;;;;;;;2.97;1.10;;;;;;;;;;4963611;28;98558;-88
2023/09/24 14:45:58;;;;;;;2.17;0.95;;;;;;;;;;4951082;28;92527;-87
2023/09/24 14:48:24;;;;;;;2.15;0.98;;;;;;;;;;4954643;28;93418;-88
2023/09/24 14:50:53;;;;;;;;;;;;;;;;;;4956562;28;94847;-89
2023/09/24 14:53:20;;;;;;;2.30;1.05;;;;;;;;;;4940675;28;99424;-89
2023/09/24 14:55:48;;;;;;;3.45;1.05;;;;;;;;;;4938972;28;95101;-88
2023/09/24 14:58:15;;;;;;;3.45;1.17;;;;;;;;;;4933951;28;92997;-87
2023/09/24 15:00:42;;;;;;;2.95;0.95;;;;;;;;;;4926292;28;96038;-88